American Lake, Washington
Current Conditions -  °F | °C
As of 2:58 PM on Thursday 27 Nov 2014 (Local Time) from KGRF Reporting Station
Drizzle Drizzle  
Wind Chill: 56°   Ceiling: Unl
Heat Index: 56°   Visibility: 10mi
Dew Point: 52°   Wind: 15mph
Humidity: 88%   Direction: 160°SSE
Pressure: 29.81"   Gusts: 21mph
Location:  47.1451°N, 122.578°W
Report Text: KGRF 272258Z AUTO 16013G18KT 10SM DZ FEW029 SCT049 SCT055 13/11 A2981 RMK AO2 RAE2159DZB2159 SLP099 P0000 T01320113 $
Loading
Personal Weather Stations






























Interactive Weather Map New forecast layout! Learn more

10-Day Weather Forecast

Advertisements
Track Severe Weather on mobile